sensor_id;sensor_type;location;lat;lon;timestamp;temperature;humidity
74359;DHT22;62792;46.236;6.040;2024-01-15T00:03:41;18.00;38.70
74359;DHT22;62792;46.236;6.040;2024-01-15T00:08:48;18.00;38.50
74359;DHT22;62792;46.236;6.040;2024-01-15T00:13:52;18.00;38.80
74359;DHT22;62792;46.236;6.040;2024-01-15T00:18:55;18.00;38.60
74359;DHT22;62792;46.236;6.040;2024-01-15T00:23:58;17.90;38.70
74359;DHT22;62792;46.236;6.040;2024-01-15T00:29:02;18.00;38.70
74359;DHT22;62792;46.236;6.040;2024-01-15T00:34:05;17.80;38.70
74359;DHT22;62792;46.236;6.040;2024-01-15T00:39:09;17.80;39.00
74359;DHT22;62792;46.236;6.040;2024-01-15T00:44:13;17.80;38.80
74359;DHT22;62792;46.236;6.040;2024-01-15T00:49:16;17.90;38.80
74359;DHT22;62792;46.236;6.040;2024-01-15T00:54:20;17.90;38.90
74359;DHT22;62792;46.236;6.040;2024-01-15T00:59:24;17.90;38.90
74359;DHT22;62792;46.236;6.040;2024-01-15T01:04:27;17.80;38.80
74359;DHT22;62792;46.236;6.040;2024-01-15T01:09:30;17.90;39.00
74359;DHT22;62792;46.236;6.040;2024-01-15T01:14:34;17.90;39.00
74359;DHT22;62792;46.236;6.040;2024-01-15T01:19:37;17.80;39.00
74359;DHT22;62792;46.236;6.040;2024-01-15T01:24:40;17.80;39.10
74359;DHT22;62792;46.236;6.040;2024-01-15T01:29:45;17.90;39.10
74359;DHT22;62792;46.236;6.040;2024-01-15T01:34:48;18.00;39.00
74359;DHT22;62792;46.236;6.040;2024-01-15T01:39:51;17.90;38.90
74359;DHT22;62792;46.236;6.040;2024-01-15T01:44:55;17.90;39.00
74359;DHT22;62792;46.236;6.040;2024-01-15T01:49:58;17.90;39.10
74359;DHT22;62792;46.236;6.040;2024-01-15T01:55:02;17.90;39.10
74359;DHT22;62792;46.236;6.040;2024-01-15T02:00:08;17.90;39.20
74359;DHT22;62792;46.236;6.040;2024-01-15T02:05:11;18.00;39.00
74359;DHT22;62792;46.236;6.040;2024-01-15T02:10:15;17.90;39.10
74359;DHT22;62792;46.236;6.040;2024-01-15T02:15:19;17.90;39.20
74359;DHT22;62792;46.236;6.040;2024-01-15T02:20:22;17.90;39.20
74359;DHT22;62792;46.236;6.040;2024-01-15T02:25:27;17.80;39.40
74359;DHT22;62792;46.236;6.040;2024-01-15T02:30:30;17.90;39.30
74359;DHT22;62792;46.236;6.040;2024-01-15T02:35:34;18.00;39.40
74359;DHT22;62792;46.236;6.040;2024-01-15T02:40:40;18.00;39.50
74359;DHT22;62792;46.236;6.040;2024-01-15T02:45:43;18.10;39.50
74359;DHT22;62792;46.236;6.040;2024-01-15T02:50:46;18.10;39.40
74359;DHT22;62792;46.236;6.040;2024-01-15T02:55:50;18.10;39.70
74359;DHT22;62792;46.236;6.040;2024-01-15T03:00:53;18.20;39.20
74359;DHT22;62792;46.236;6.040;2024-01-15T03:05:56;18.20;39.10
74359;DHT22;62792;46.236;6.040;2024-01-15T03:11:01;18.20;39.10
74359;DHT22;62792;46.236;6.040;2024-01-15T03:16:04;18.10;39.90
74359;DHT22;62792;46.236;6.040;2024-01-15T03:21:07;18.10;39.70
74359;DHT22;62792;46.236;6.040;2024-01-15T03:26:11;18.00;39.90
74359;DHT22;62792;46.236;6.040;2024-01-15T03:31:14;18.00;40.00
74359;DHT22;62792;46.236;6.040;2024-01-15T03:36:17;18.10;40.00
74359;DHT22;62792;46.236;6.040;2024-01-15T03:41:23;18.20;39.30
74359;DHT22;62792;46.236;6.040;2024-01-15T03:46:26;18.20;39.30
74359;DHT22;62792;46.236;6.040;2024-01-15T03:51:29;18.10;39.90
74359;DHT22;62792;46.236;6.040;2024-01-15T03:56:33;18.10;40.00
74359;DHT22;62792;46.236;6.040;2024-01-15T04:01:36;18.20;39.60
74359;DHT22;62792;46.236;6.040;2024-01-15T04:06:40;18.30;39.50
74359;DHT22;62792;46.236;6.040;2024-01-15T04:11:44;18.40;39.50
74359;DHT22;62792;46.236;6.040;2024-01-15T04:16:47;18.60;39.30
74359;DHT22;62792;46.236;6.040;2024-01-15T04:21:50;18.60;39.30
74359;DHT22;62792;46.236;6.040;2024-01-15T04:26:54;18.70;39.40
74359;DHT22;62792;46.236;6.040;2024-01-15T04:31:57;18.70;39.10
74359;DHT22;62792;46.236;6.040;2024-01-15T04:37:00;18.70;39.20
74359;DHT22;62792;46.236;6.040;2024-01-15T04:42:05;18.50;39.30
74359;DHT22;62792;46.236;6.040;2024-01-15T04:47:08;18.50;39.30
74359;DHT22;62792;46.236;6.040;2024-01-15T04:52:11;18.60;39.40
74359;DHT22;62792;46.236;6.040;2024-01-15T04:57:15;18.60;39.20
74359;DHT22;62792;46.236;6.040;2024-01-15T05:02:18;18.70;39.10
74359;DHT22;62792;46.236;6.040;2024-01-15T05:07:21;18.70;39.30
74359;DHT22;62792;46.236;6.040;2024-01-15T05:12:25;18.80;39.30
74359;DHT22;62792;46.236;6.040;2024-01-15T05:17:28;18.80;39.30
74359;DHT22;62792;46.236;6.040;2024-01-15T05:22:32;18.80;39.30
74359;DHT22;62792;46.236;6.040;2024-01-15T05:27:36;18.80;39.20
74359;DHT22;62792;46.236;6.040;2024-01-15T05:32:39;18.80;39.10
74359;DHT22;62792;46.236;6.040;2024-01-15T05:37:43;18.90;39.20
74359;DHT22;62792;46.236;6.040;2024-01-15T05:42:48;18.80;39.20
74359;DHT22;62792;46.236;6.040;2024-01-15T05:47:51;18.80;39.20
74359;DHT22;62792;46.236;6.040;2024-01-15T05:52:54;18.90;39.20
74359;DHT22;62792;46.236;6.040;2024-01-15T05:57:58;18.80;39.10
74359;DHT22;62792;46.236;6.040;2024-01-15T06:03:01;18.80;39.50
74359;DHT22;62792;46.236;6.040;2024-01-15T06:08:05;18.80;39.00
74359;DHT22;62792;46.236;6.040;2024-01-15T06:13:09;18.80;39.00
74359;DHT22;62792;46.236;6.040;2024-01-15T06:18:12;18.90;39.10
74359;DHT22;62792;46.236;6.040;2024-01-15T06:23:15;18.70;39.10
74359;DHT22;62792;46.236;6.040;2024-01-15T06:28:23;18.90;39.10
74359;DHT22;62792;46.236;6.040;2024-01-15T06:33:26;18.70;39.00
74359;DHT22;62792;46.236;6.040;2024-01-15T06:38:29;18.80;39.00
74359;DHT22;62792;46.236;6.040;2024-01-15T06:43:33;18.90;39.10
74359;DHT22;62792;46.236;6.040;2024-01-15T06:48:36;18.90;39.00
74359;DHT22;62792;46.236;6.040;2024-01-15T06:53:39;18.90;39.40
74359;DHT22;62792;46.236;6.040;2024-01-15T06:58:44;18.80;39.10
74359;DHT22;62792;46.236;6.040;2024-01-15T07:03:47;19.00;39.10
74359;DHT22;62792;46.236;6.040;2024-01-15T07:08:50;19.00;39.00
74359;DHT22;62792;46.236;6.040;2024-01-15T07:13:54;19.00;39.20
74359;DHT22;62792;46.236;6.040;2024-01-15T07:18:57;19.00;38.90
74359;DHT22;62792;46.236;6.040;2024-01-15T07:24:00;19.00;38.90
74359;DHT22;62792;46.236;6.040;2024-01-15T07:29:04;19.00;38.90
74359;DHT22;62792;46.236;6.040;2024-01-15T07:34:07;18.90;39.20
74359;DHT22;62792;46.236;6.040;2024-01-15T07:39:10;19.00;39.10
74359;DHT22;62792;46.236;6.040;2024-01-15T07:44:15;19.00;39.10
74359;DHT22;62792;46.236;6.040;2024-01-15T07:49:18;18.90;39.10
74359;DHT22;62792;46.236;6.040;2024-01-15T07:54:21;19.00;39.30
74359;DHT22;62792;46.236;6.040;2024-01-15T07:59:26;19.00;39.20
74359;DHT22;62792;46.236;6.040;2024-01-15T08:04:29;19.00;39.20
74359;DHT22;62792;46.236;6.040;2024-01-15T08:09:32;19.00;39.10
74359;DHT22;62792;46.236;6.040;2024-01-15T08:14:37;19.00;39.30
74359;DHT22;62792;46.236;6.040;2024-01-15T08:19:40;19.00;39.20
74359;DHT22;62792;46.236;6.040;2024-01-15T08:24:43;19.20;40.50
74359;DHT22;62792;46.236;6.040;2024-01-15T08:29:48;19.40;41.20
74359;DHT22;62792;46.236;6.040;2024-01-15T08:34:51;19.60;41.50
74359;DHT22;62792;46.236;6.040;2024-01-15T08:39:54;19.80;41.70
74359;DHT22;62792;46.236;6.040;2024-01-15T08:44:59;19.80;41.30
74359;DHT22;62792;46.236;6.040;2024-01-15T08:50:04;20.00;41.20
74359;DHT22;62792;46.236;6.040;2024-01-15T08:55:07;19.90;41.30
74359;DHT22;62792;46.236;6.040;2024-01-15T09:00:12;20.00;41.30
74359;DHT22;62792;46.236;6.040;2024-01-15T09:05:16;19.90;41.00
74359;DHT22;62792;46.236;6.040;2024-01-15T09:10:20;19.80;40.80
74359;DHT22;62792;46.236;6.040;2024-01-15T09:15:24;19.80;41.00
74359;DHT22;62792;46.236;6.040;2024-01-15T09:20:29;19.80;41.00
74359;DHT22;62792;46.236;6.040;2024-01-15T09:25:32;19.70;40.70
74359;DHT22;62792;46.236;6.040;2024-01-15T09:30:36;19.70;41.00
74359;DHT22;62792;46.236;6.040;2024-01-15T09:35:39;19.70;40.90
74359;DHT22;62792;46.236;6.040;2024-01-15T09:40:42;19.90;40.80
74359;DHT22;62792;46.236;6.040;2024-01-15T09:45:47;19.90;41.10
74359;DHT22;62792;46.236;6.040;2024-01-15T09:50:51;20.00;41.30
74359;DHT22;62792;46.236;6.040;2024-01-15T09:55:55;20.20;41.10
74359;DHT22;62792;46.236;6.040;2024-01-15T10:01:00;20.30;41.00
74359;DHT22;62792;46.236;6.040;2024-01-15T10:06:09;20.30;41.10
74359;DHT22;62792;46.236;6.040;2024-01-15T10:11:13;20.30;41.00
74359;DHT22;62792;46.236;6.040;2024-01-15T10:16:18;20.20;40.90
74359;DHT22;62792;46.236;6.040;2024-01-15T10:21:21;20.00;41.20
74359;DHT22;62792;46.236;6.040;2024-01-15T10:26:24;20.00;41.20
74359;DHT22;62792;46.236;6.040;2024-01-15T10:31:28;20.10;40.70
74359;DHT22;62792;46.236;6.040;2024-01-15T10:36:32;20.30;41.00
74359;DHT22;62792;46.236;6.040;2024-01-15T10:41:35;20.50;43.90
74359;DHT22;62792;46.236;6.040;2024-01-15T10:46:39;20.60;45.50
74359;DHT22;62792;46.236;6.040;2024-01-15T10:51:43;20.50;46.40
74359;DHT22;62792;46.236;6.040;2024-01-15T10:56:46;20.40;46.70
74359;DHT22;62792;46.236;6.040;2024-01-15T11:01:51;20.30;46.80
74359;DHT22;62792;46.236;6.040;2024-01-15T11:06:57;20.20;46.50
74359;DHT22;62792;46.236;6.040;2024-01-15T11:12:06;20.30;46.40
74359;DHT22;62792;46.236;6.040;2024-01-15T11:17:12;20.30;46.30
74359;DHT22;62792;46.236;6.040;2024-01-15T11:27:52;20.30;46.00
74359;DHT22;62792;46.236;6.040;2024-01-15T11:32:58;20.30;45.80
74359;DHT22;62792;46.236;6.040;2024-01-15T11:38:01;20.30;46.90
74359;DHT22;62792;46.236;6.040;2024-01-15T11:43:04;20.40;46.70
74359;DHT22;62792;46.236;6.040;2024-01-15T11:48:12;20.50;46.20
74359;DHT22;62792;46.236;6.040;2024-01-15T11:53:17;20.70;46.10
74359;DHT22;62792;46.236;6.040;2024-01-15T11:58:24;20.90;46.10
74359;DHT22;62792;46.236;6.040;2024-01-15T12:03:28;20.90;45.20
74359;DHT22;62792;46.236;6.040;2024-01-15T12:08:35;20.90;45.20
74359;DHT22;62792;46.236;6.040;2024-01-15T12:13:38;21.10;44.90
74359;DHT22;62792;46.236;6.040;2024-01-15T12:18:43;21.20;46.10
74359;DHT22;62792;46.236;6.040;2024-01-15T12:23:46;21.20;46.50
74359;DHT22;62792;46.236;6.040;2024-01-15T12:28:50;21.30;47.00
74359;DHT22;62792;46.236;6.040;2024-01-15T12:33:58;21.30;47.30
74359;DHT22;62792;46.236;6.040;2024-01-15T12:39:01;21.40;47.20
74359;DHT22;62792;46.236;6.040;2024-01-15T12:44:05;21.40;46.90
74359;DHT22;62792;46.236;6.040;2024-01-15T12:49:10;21.40;46.60
74359;DHT22;62792;46.236;6.040;2024-01-15T12:54:13;21.50;46.30
74359;DHT22;62792;46.236;6.040;2024-01-15T12:59:16;21.50;46.20
74359;DHT22;62792;46.236;6.040;2024-01-15T13:04:23;21.50;45.60
74359;DHT22;62792;46.236;6.040;2024-01-15T13:09:27;21.30;43.70
74359;DHT22;62792;46.236;6.040;2024-01-15T13:14:32;21.30;43.60
74359;DHT22;62792;46.236;6.040;2024-01-15T13:19:37;21.40;43.10
74359;DHT22;62792;46.236;6.040;2024-01-15T13:24:40;21.40;42.90
74359;DHT22;62792;46.236;6.040;2024-01-15T13:29:44;21.40;42.70
74359;DHT22;62792;46.236;6.040;2024-01-15T13:34:48;21.40;42.60
74359;DHT22;62792;46.236;6.040;2024-01-15T13:39:52;21.40;42.60
74359;DHT22;62792;46.236;6.040;2024-01-15T13:44:55;21.40;42.90
74359;DHT22;62792;46.236;6.040;2024-01-15T13:49:59;21.60;42.70
74359;DHT22;62792;46.236;6.040;2024-01-15T13:55:03;21.50;42.60
74359;DHT22;62792;46.236;6.040;2024-01-15T14:00:06;21.50;42.90
74359;DHT22;62792;46.236;6.040;2024-01-15T14:05:12;21.40;42.90
74359;DHT22;62792;46.236;6.040;2024-01-15T14:10:16;21.50;43.00
74359;DHT22;62792;46.236;6.040;2024-01-15T14:15:19;21.50;43.20
74359;DHT22;62792;46.236;6.040;2024-01-15T14:20:24;21.50;43.10
74359;DHT22;62792;46.236;6.040;2024-01-15T14:25:27;21.40;42.90
74359;DHT22;62792;46.236;6.040;2024-01-15T14:30:30;21.50;42.90
74359;DHT22;62792;46.236;6.040;2024-01-15T14:35:35;21.50;43.10
74359;DHT22;62792;46.236;6.040;2024-01-15T14:40:38;21.50;42.90
74359;DHT22;62792;46.236;6.040;2024-01-15T14:45:41;21.50;42.60
74359;DHT22;62792;46.236;6.040;2024-01-15T14:50:48;21.50;42.70
74359;DHT22;62792;46.236;6.040;2024-01-15T14:55:52;21.60;42.80
74359;DHT22;62792;46.236;6.040;2024-01-15T15:00:55;21.60;42.60
74359;DHT22;62792;46.236;6.040;2024-01-15T15:06:00;21.60;42.70
74359;DHT22;62792;46.236;6.040;2024-01-15T15:11:03;21.50;42.60
74359;DHT22;62792;46.236;6.040;2024-01-15T15:16:06;21.50;42.60
74359;DHT22;62792;46.236;6.040;2024-01-15T15:21:11;21.60;42.60
74359;DHT22;62792;46.236;6.040;2024-01-15T15:26:14;21.60;42.90
74359;DHT22;62792;46.236;6.040;2024-01-15T15:31:17;21.70;42.60
74359;DHT22;62792;46.236;6.040;2024-01-15T15:36:21;21.60;42.60
74359;DHT22;62792;46.236;6.040;2024-01-15T15:41:25;21.70;42.40
74359;DHT22;62792;46.236;6.040;2024-01-15T15:46:29;21.70;42.40
74359;DHT22;62792;46.236;6.040;2024-01-15T15:51:34;21.70;42.60
74359;DHT22;62792;46.236;6.040;2024-01-15T15:56:38;21.70;42.70
74359;DHT22;62792;46.236;6.040;2024-01-15T16:01:41;21.60;42.60
74359;DHT22;62792;46.236;6.040;2024-01-15T16:06:45;21.60;42.80
74359;DHT22;62792;46.236;6.040;2024-01-15T16:11:49;21.50;42.90
74359;DHT22;62792;46.236;6.040;2024-01-15T16:16:52;21.60;43.20
74359;DHT22;62792;46.236;6.040;2024-01-15T16:22:20;21.40;43.20
74359;DHT22;62792;46.236;6.040;2024-01-15T16:27:43;21.40;42.70
74359;DHT22;62792;46.236;6.040;2024-01-15T16:32:46;21.20;43.10
74359;DHT22;62792;46.236;6.040;2024-01-15T16:37:52;21.10;43.00
74359;DHT22;62792;46.236;6.040;2024-01-15T16:42:55;21.00;43.10
74359;DHT22;62792;46.236;6.040;2024-01-15T16:47:58;21.00;42.70
74359;DHT22;62792;46.236;6.040;2024-01-15T16:53:02;21.00;42.70
74359;DHT22;62792;46.236;6.040;2024-01-15T16:58:05;21.00;42.60
74359;DHT22;62792;46.236;6.040;2024-01-15T17:03:08;20.90;43.20
74359;DHT22;62792;46.236;6.040;2024-01-15T17:08:13;20.90;42.40
74359;DHT22;62792;46.236;6.040;2024-01-15T17:13:15;20.90;43.20
74359;DHT22;62792;46.236;6.040;2024-01-15T17:18:18;20.80;43.10
74359;DHT22;62792;46.236;6.040;2024-01-15T17:23:23;20.80;43.00
74359;DHT22;62792;46.236;6.040;2024-01-15T17:28:26;20.90;42.80
74359;DHT22;62792;46.236;6.040;2024-01-15T17:33:29;20.90;42.40
74359;DHT22;62792;46.236;6.040;2024-01-15T17:38:33;20.80;42.70
74359;DHT22;62792;46.236;6.040;2024-01-15T17:43:36;20.70;42.70
74359;DHT22;62792;46.236;6.040;2024-01-15T17:48:39;20.70;42.60
74359;DHT22;62792;46.236;6.040;2024-01-15T17:53:44;20.60;42.60
74359;DHT22;62792;46.236;6.040;2024-01-15T17:58:48;20.70;42.40
74359;DHT22;62792;46.236;6.040;2024-01-15T18:03:51;20.80;42.20
74359;DHT22;62792;46.236;6.040;2024-01-15T18:08:56;20.80;42.50
74359;DHT22;62792;46.236;6.040;2024-01-15T18:13:59;20.60;42.60
74359;DHT22;62792;46.236;6.040;2024-01-15T18:19:02;20.70;42.30
74359;DHT22;62792;46.236;6.040;2024-01-15T18:24:07;20.50;42.40
74359;DHT22;62792;46.236;6.040;2024-01-15T18:29:10;20.50;42.40
74359;DHT22;62792;46.236;6.040;2024-01-15T18:34:13;20.50;42.40
74359;DHT22;62792;46.236;6.040;2024-01-15T18:39:18;20.40;42.50
74359;DHT22;62792;46.236;6.040;2024-01-15T18:44:21;20.30;42.50
74359;DHT22;62792;46.236;6.040;2024-01-15T18:49:24;20.30;42.50
74359;DHT22;62792;46.236;6.040;2024-01-15T18:54:28;20.20;42.40
74359;DHT22;62792;46.236;6.040;2024-01-15T18:59:31;20.10;42.50
74359;DHT22;62792;46.236;6.040;2024-01-15T19:04:36;20.00;42.50
74359;DHT22;62792;46.236;6.040;2024-01-15T19:09:40;20.00;42.30
74359;DHT22;62792;46.236;6.040;2024-01-15T19:14:44;20.00;42.40
74359;DHT22;62792;46.236;6.040;2024-01-15T19:19:48;20.00;42.40
74359;DHT22;62792;46.236;6.040;2024-01-15T19:24:54;19.90;42.40
74359;DHT22;62792;46.236;6.040;2024-01-15T19:29:57;20.00;42.20
74359;DHT22;62792;46.236;6.040;2024-01-15T19:35:00;20.00;42.40
74359;DHT22;62792;46.236;6.040;2024-01-15T19:40:05;20.00;42.10
74359;DHT22;62792;46.236;6.040;2024-01-15T19:45:09;19.90;42.20
74359;DHT22;62792;46.236;6.040;2024-01-15T19:50:12;19.90;42.00
74359;DHT22;62792;46.236;6.040;2024-01-15T19:55:17;19.80;42.00
74359;DHT22;62792;46.236;6.040;2024-01-15T20:00:20;19.80;41.90
74359;DHT22;62792;46.236;6.040;2024-01-15T20:05:23;19.80;41.80
74359;DHT22;62792;46.236;6.040;2024-01-15T20:10:28;19.80;41.60
74359;DHT22;62792;46.236;6.040;2024-01-15T20:15:32;19.80;41.60
74359;DHT22;62792;46.236;6.040;2024-01-15T20:20:38;19.70;41.60
74359;DHT22;62792;46.236;6.040;2024-01-15T20:25:44;19.70;41.40
74359;DHT22;62792;46.236;6.040;2024-01-15T20:30:47;19.70;41.40
74359;DHT22;62792;46.236;6.040;2024-01-15T20:35:52;19.70;41.50
74359;DHT22;62792;46.236;6.040;2024-01-15T20:40:57;19.70;41.30
74359;DHT22;62792;46.236;6.040;2024-01-15T20:46:00;19.60;41.30
74359;DHT22;62792;46.236;6.040;2024-01-15T20:51:03;19.60;41.30
74359;DHT22;62792;46.236;6.040;2024-01-15T20:56:10;19.70;41.30
74359;DHT22;62792;46.236;6.040;2024-01-15T21:01:14;19.70;41.10
74359;DHT22;62792;46.236;6.040;2024-01-15T21:06:18;19.60;41.20
74359;DHT22;62792;46.236;6.040;2024-01-15T21:11:23;19.70;41.00
74359;DHT22;62792;46.236;6.040;2024-01-15T21:16:26;19.70;41.20
74359;DHT22;62792;46.236;6.040;2024-01-15T21:21:29;19.60;41.20
74359;DHT22;62792;46.236;6.040;2024-01-15T21:26:34;19.60;41.10
74359;DHT22;62792;46.236;6.040;2024-01-15T21:31:37;19.50;40.90
74359;DHT22;62792;46.236;6.040;2024-01-15T21:36:40;19.50;40.90
74359;DHT22;62792;46.236;6.040;2024-01-15T21:41:44;19.60;41.00
74359;DHT22;62792;46.236;6.040;2024-01-15T21:46:48;19.50;40.90
74359;DHT22;62792;46.236;6.040;2024-01-15T21:51:51;19.60;40.80
74359;DHT22;62792;46.236;6.040;2024-01-15T21:56:56;19.50;40.90
74359;DHT22;62792;46.236;6.040;2024-01-15T22:01:59;19.50;40.60
74359;DHT22;62792;46.236;6.040;2024-01-15T22:07:06;19.50;40.60
74359;DHT22;62792;46.236;6.040;2024-01-15T22:12:11;19.40;40.80
74359;DHT22;62792;46.236;6.040;2024-01-15T22:17:13;19.50;40.60
74359;DHT22;62792;46.236;6.040;2024-01-15T22:22:17;19.50;40.60
74359;DHT22;62792;46.236;6.040;2024-01-15T22:27:21;19.50;40.40
74359;DHT22;62792;46.236;6.040;2024-01-15T22:32:24;19.40;40.40
74359;DHT22;62792;46.236;6.040;2024-01-15T22:37:32;19.30;40.30
74359;DHT22;62792;46.236;6.040;2024-01-15T22:42:37;19.30;40.30
74359;DHT22;62792;46.236;6.040;2024-01-15T22:47:40;19.20;40.40
74359;DHT22;62792;46.236;6.040;2024-01-15T22:52:43;19.30;40.40
74359;DHT22;62792;46.236;6.040;2024-01-15T22:57:47;19.30;40.40
74359;DHT22;62792;46.236;6.040;2024-01-15T23:02:50;19.40;40.10
74359;DHT22;62792;46.236;6.040;2024-01-15T23:07:58;19.40;40.20
74359;DHT22;62792;46.236;6.040;2024-01-15T23:13:03;19.30;40.20
74359;DHT22;62792;46.236;6.040;2024-01-15T23:18:06;19.40;40.20
74359;DHT22;62792;46.236;6.040;2024-01-15T23:23:10;19.30;40.30
74359;DHT22;62792;46.236;6.040;2024-01-15T23:28:15;19.20;40.40
74359;DHT22;62792;46.236;6.040;2024-01-15T23:33:18;19.10;40.20
74359;DHT22;62792;46.236;6.040;2024-01-15T23:38:21;19.10;40.20
74359;DHT22;62792;46.236;6.040;2024-01-15T23:43:26;19.10;40.10
74359;DHT22;62792;46.236;6.040;2024-01-15T23:48:30;19.20;40.20
74359;DHT22;62792;46.236;6.040;2024-01-15T23:53:33;19.20;40.10
74359;DHT22;62792;46.236;6.040;2024-01-15T23:58:38;19.20;40.00
